Terminal Aerodrome Forecast
Issued by NWS

Home | Current Version | Previous Version | Text Only | Print | Product List | Glossary On
Versions: 1 2 3 4 5 6 7 8 9 10 11 12 13 14 15 16
031
FTUS46 KSEW 212345
TAFPAE
TAF
KPAE 212345Z 2200/2224 30007KT P6SM VCSH SCT030 SCT200
     FM220300 01004KT P6SM SCT200
     FM221200 VRB03KT P6SM SCT150 SCT200
     FM221700 VRB03KT P6SM SCT100 SCT200
     FM222000 18005KT P6SM SCT100 SCT200=

USA.gov is the U.S. government's official web portal to all federal, state and local government web resources and services.